Leander, TX (78641)

11:05 PM CDT on April 01, 2015 (GMT -0500)
K5KTF, Cedar Park | | Change Station
CLOSE
Current Station
Personal Weather Station
Location: Cedar Park, TX
Elevation: 1089 ft
Nearby Weather Stations

Elev 1089 ft 30.52 °N, 97.88 °W | Updated 2 seconds ago

Partly Cloudy
Partly Cloudy
70.7 °F
Feels Like 70 °F
N
3.4
Wind Variable Wind from SSW
Gusts 4.7 mph

Today
High -- | Low -- °F
--% Chance of Precip.
Yesterday
High -- | Low -- °F
Precip. -- in
7:20 AM 7:50 PM
Waxing Gibbous, 95% visible
Pressure 29.94 in
Visibility 10.0 miles
Clouds Mostly Cloudy 1100 ft
Mostly Cloudy 1500 ft
Heat Index 70 °F
Dew Point 65 °F
Humidity 83%
Rainfall in
Snow Depth Not available.
UV 0 out of 12
Pollen 8.60 out of 12
Air Quality Not available.
Flu Activity Not available.
METAR KRYW 020355Z AUTO 16007KT 10SM BKN011 BKN015 21/18 A2994 RMK AO2 T02090182

More Conditions Fewer Conditions

Pressure 29.94 in
Visibility 10.0 miles
Clouds Mostly Cloudy 1100 ft
Mostly Cloudy 1500 ft
Heat Index 70 °F
Dew Point 65 °F
Humidity 83%
Rainfall in
Snow Depth Not available.
UV 0 out of 12
Pollen 8.60 out of 12
Air Quality Not available.
Flu Activity Not available.
METAR KRYW 020355Z AUTO 16007KT 10SM BKN011 BKN015 21/18 A2994 RMK AO2 T02090182

More Conditions Fewer Conditions

10-Day Weather Forecast

Almanac

Astronomy

Apr. 01, 2015 Rise Set
Actual Time
Civil Twilight
Nautical Twilight
Astronomical Twilight
Moon
Length of Visible Light
Length of Day
Tomorrow will be .
, % of the Moon is Illuminated

Today's Extremes

State Highs State Lows

Community

WunderPhotos

Upload Photos

1,810,188 photos uploaded!

WunderBlogs® & News

Nearby

Air Quality

  Air Quality AQ Index Pollutant
Not available.

Snow Depth

Station Depth Elevation

Earthquake Activity

City Distance Mag. Time & Date
Minimum magnitude displayed is 2.5.

Coastal Water Temperatures

Place Temperature

Stations

Nearby Weather Stations

Station Location Temp. Windchill Dew Point Humidity Wind Precip. Elev Updated Type